Latest Weather Observations for Lajamanu

IDD60801

Issued at 9:35 pm CST Monday 21 April 2014 (issued every 30 minutes, with the page automatically refreshed every 10 minutes)

About weather observations | Map of weather stations | Latest weather observations for NT | Other Formats
Station Details ID: 014829 Name: LAJAMANU AIRPORT Lat: -18.33 Lon: 130.64 Height: 315.6 m
Data from the previous 72 hours. | See also: Recent months at Lajamanu
Date/Time
CST
Temp
°C
App
Temp
°C
Dew
Point
Rel
Hum
%
Delta-T
°C
Wind Press
QNH
hPa
Press
MSL
hPa
Rain
since 9 am
mm
Dir
 
Spd
km/h
Gust
km/h
Spd
kts
Gust
kts
21/09:30pm 20.2 18.8 9.7 51 5.7 SE 7 9 4 5 1014.9 - 0.0
21/09:00pm 20.6 19.3 10.1 51 5.7 SE 7 9 4 5 1014.7 1012.9 0.0
21/08:30pm 20.9 19.5 9.5 48 6.2 SE 7 9 4 5 1014.5 - 0.0
21/08:00pm 22.7 21.2 9.1 42 7.4 E 7 9 4 5 1014.2 - 0.0
21/07:30pm 22.5 21.2 9.3 43 7.2 ESE 6 7 3 4 1013.9 - 0.0
21/07:00pm 23.9 22.4 9.1 39 8.1 ESE 7 9 4 5 1013.6 - 0.0
21/06:30pm 26.5 24.5 8.5 32 9.9 E 9 11 5 6 1013.4 - 0.0
21/06:00pm 29.4 27.1 7.3 25 12.1 E 9 11 5 6 1013.2 1011.3 0.0
21/05:30pm 30.8 28.2 6.0 21 13.4 E 9 17 5 9 1012.7 - 0.0
21/05:00pm 31.3 28.4 4.9 19 14.0 E 9 15 5 8 1012.5 - 0.0
21/04:30pm 31.7 28.0 4.5 18 14.4 E 13 17 7 9 1012.4 - 0.0
21/04:00pm 32.3 29.2 5.7 19 14.4 ENE 11 20 6 11 1012.4 - 0.0
21/03:30pm 32.2 28.8 5.7 19 14.3 E 13 22 7 12 1012.3 - 0.0
21/03:00pm 32.4 28.6 5.8 19 14.4 E 15 30 8 16 1012.5 1010.7 0.0
21/02:30pm 32.2 28.4 5.7 19 14.3 E 15 32 8 17 1012.6 - 0.0
21/02:00pm 31.9 28.0 5.4 19 14.2 E 15 26 8 14 1013.1 - 0.0
21/01:30pm 31.7 27.0 6.0 20 13.9 E 20 32 11 17 1013.5 - 0.0
21/01:00pm 31.3 26.5 5.7 20 13.8 E 20 28 11 15 1014.0 - 0.0
21/12:30pm 31.0 26.7 6.8 22 13.2 ENE 19 32 10 17 1014.5 - 0.0
21/12:00pm 30.3 25.9 7.5 24 12.6 ENE 20 28 11 15 1015.0 1013.2 0.0
21/11:30am 30.1 26.2 7.3 24 12.5 E 17 28 9 15 1015.5 - 0.0
21/11:00am 28.9 24.4 6.3 24 12.1 E 19 30 10 16 1015.9 - 0.0
21/10:30am 28.5 24.2 7.1 26 11.6 E 19 28 10 15 1016.0 - 0.0
21/10:00am 26.8 23.2 6.8 28 10.7 E 15 22 8 12 1016.1 - 0.0
21/09:30am 25.0 22.4 9.3 37 8.7 E 13 17 7 9 1016.0 - 0.0
21/09:00am 22.2 20.3 10.4 47 6.5 ESE 11 19 6 10 1015.9 1014.1 0.0
21/08:30am 20.0 18.7 9.9 52 5.5 SE 7 17 4 9 1015.9 - 0.0
21/08:00am 17.6 16.6 8.7 56 4.7 S 4 7 2 4 1015.1 - 0.0
21/07:30am 13.5 13.8 10.9 84 1.4 CALM 0 6 0 3 1014.9 - 0.0
21/07:00am 12.8 12.3 9.4 80 1.8 SSW 2 6 1 3 1014.6 - 0.0
21/06:30am 13.3 12.9 9.7 79 1.9 SW 2 6 1 3 1014.1 - 0.0
21/06:00am 13.5 13.6 10.1 80 1.8 CALM 0 0 0 0 1013.7 1011.8 0.0
21/05:30am 13.0 11.8 9.4 79 1.9 SSW 6 7 3 4 1013.4 - 0.0
21/05:00am 13.1 12.8 8.6 74 2.3 CALM 0 6 0 3 1013.3 - 0.0
21/04:30am 13.2 12.0 9.6 79 1.9 SSW 6 6 3 3 1013.1 - 0.0
21/04:00am 13.3 12.0 9.2 76 2.1 S 6 7 3 4 1013.2 - 0.0
21/03:30am 14.0 13.7 8.6 70 2.8 CALM 0 0 0 0 1013.2 - 0.0
21/03:00am 14.3 12.7 8.0 66 3.2 S 6 7 3 4 1013.3 1011.4 0.0
21/02:30am 14.2 12.6 8.8 70 2.8 S 7 9 4 5 1013.5 - 0.0
21/02:00am 14.4 13.0 9.4 72 2.6 S 7 7 4 4 1013.8 - 0.0
21/01:30am 15.0 14.4 9.1 68 3.1 SE 2 7 1 4 1014.0 - 0.0
21/01:00am 15.2 14.8 8.2 63 3.6 CALM 0 4 0 2 1014.1 - 0.0
21/12:30am 15.5 14.1 9.0 65 3.4 SE 6 6 3 3 1014.2 - 0.0
21/12:00am 16.0 14.7 9.2 64 3.6 SSE 6 7 3 4 1014.3 1012.5 0.0
 
Date/Time
CST
Temp
°C
App
Temp
°C
Dew
Point
Rel
Hum
%
Delta-T
°C
Wind Press
QNH
hPa
Press
MSL
hPa
Rain
since 9 am
mm
Dir
 
Spd
km/h
Gust
km/h
Spd
kts
Gust
kts
20/11:30pm 17.0 15.1 7.4 53 4.9 ESE 7 7 4 4 1014.3 - 0.0
20/11:00pm 18.2 16.4 7.9 51 5.3 E 7 9 4 5 1014.4 - 0.0
20/10:30pm 19.4 17.5 9.0 51 5.5 E 9 11 5 6 1014.5 - 0.0
20/10:00pm 19.5 17.9 8.8 50 5.7 ESE 7 9 4 5 1014.7 - 0.0
20/09:30pm 18.9 16.9 8.8 52 5.3 SE 9 9 5 5 1014.6 - 0.0
20/09:00pm 20.4 19.0 8.7 47 6.2 ESE 6 9 3 5 1014.5 1012.7 0.0
20/08:30pm 21.6 19.9 8.5 43 7.0 E 7 9 4 5 1014.1 - 0.0
20/08:00pm 21.8 20.3 9.0 44 6.9 E 7 9 4 5 1013.9 - 0.0
20/07:30pm 20.6 19.1 8.3 45 6.5 E 6 7 3 4 1013.4 - 0.0
20/07:00pm 23.1 21.3 8.0 38 8.1 E 7 7 4 4 1013.2 - 0.0
20/06:30pm 24.5 23.1 9.6 39 8.3 SE 7 9 4 5 1013.0 - 0.0
20/06:00pm 28.1 26.2 7.4 27 11.3 ESE 7 9 4 5 1012.6 1010.8 0.0
20/05:30pm 29.7 27.2 6.4 23 12.6 E 9 13 5 7 1012.4 - 0.0
20/05:00pm 30.7 27.5 5.2 20 13.6 ESE 11 17 6 9 1012.1 - 0.0
20/04:30pm 31.1 27.9 3.2 17 14.4 E 9 15 5 8 1012.1 - 0.0
20/04:00pm 31.6 27.7 3.6 17 14.6 SE 13 19 7 10 1012.0 - 0.0
20/03:30pm 31.5 27.6 3.5 17 14.5 SE 13 19 7 10 1012.0 - 0.0
20/03:00pm 31.3 27.6 4.2 18 14.2 ESE 13 24 7 13 1012.2 1010.4 0.0
20/02:30pm 31.6 27.0 3.6 17 14.6 E 17 28 9 15 1012.5 - 0.0
20/02:00pm 31.4 26.2 2.6 16 14.7 ESE 19 33 10 18 1013.0 - 0.0
20/01:30pm 31.6 26.7 5.2 19 14.1 SE 20 30 11 16 1013.3 - 0.0
20/01:00pm 30.7 25.7 4.4 19 13.8 E 20 30 11 16 1013.8 - 0.0
20/12:30pm 30.2 25.1 4.0 19 13.6 E 20 26 11 14 1014.2 - 0.0
20/12:00pm 29.7 25.0 5.1 21 13.0 E 19 30 10 16 1014.8 1013.0 0.0
20/11:30am 29.2 24.8 4.6 21 12.8 E 17 26 9 14 1015.3 - 0.0
20/11:00am 28.4 23.4 4.6 22 12.4 E 20 30 11 16 1015.8 - 0.0
20/10:30am 27.3 21.5 4.4 23 11.8 E 24 35 13 19 1016.0 - 0.0
20/10:00am 26.2 21.5 5.2 26 10.9 E 19 30 10 16 1015.9 - 0.0
20/09:30am 24.4 19.8 5.7 30 9.7 E 19 26 10 14 1015.9 - 0.0
20/09:00am 22.3 18.9 7.7 39 7.7 ESE 15 20 8 11 1015.8 1014.0 0.0
20/08:30am 19.8 17.1 7.5 45 6.4 SE 11 19 6 10 1015.4 - 0.0
20/08:00am 17.6 15.2 6.8 49 5.5 SSE 9 11 5 6 1015.1 - 0.0
20/07:30am 16.1 14.0 6.8 54 4.7 SSE 7 11 4 6 1014.8 - 0.0
20/07:00am 15.8 13.4 6.8 55 4.5 S 9 11 5 6 1014.5 - 0.0
20/06:30am 15.7 12.8 6.7 55 4.5 S 11 15 6 8 1014.2 - 0.0
20/06:00am 15.5 13.6 7.5 59 4.0 S 7 11 4 6 1013.9 1012.0 0.0
20/05:30am 14.4 12.5 9.0 70 2.8 SW 9 13 5 7 1013.7 - 0.0
20/05:00am 13.9 12.9 8.7 71 2.7 SSW 4 7 2 4 1013.7 - 0.0
20/04:30am 13.7 13.2 9.2 74 2.3 SSW 2 6 1 3 1013.5 - 0.0
20/04:00am 13.8 13.7 9.5 75 2.2 CALM 0 4 0 2 1013.7 - 0.0
20/03:30am 14.7 14.2 10.7 77 2.1 W 4 7 2 4 1013.6 - 0.0
20/03:00am 14.2 13.6 8.8 70 2.8 NW 2 6 1 3 1013.7 1011.8 0.0
20/02:30am 15.7 14.5 8.2 61 3.8 W 4 9 2 5 1013.9 - 0.0
20/02:00am 16.9 14.9 7.3 53 4.9 E 7 20 4 11 1014.0 - 0.0
20/01:30am 16.2 14.5 7.4 56 4.5 SE 6 7 3 4 1014.3 - 0.0
20/01:00am 15.9 14.0 7.4 57 4.3 SSE 7 9 4 5 1014.4 - 0.0
20/12:30am 17.5 15.5 7.0 50 5.3 SE 7 9 4 5 1014.5 - 0.0
20/12:00am 18.1 16.1 6.9 48 5.7 SE 7 9 4 5 1014.6 1012.8 0.0
 
Date/Time
CST
Temp
°C
App
Temp
°C
Dew
Point
Rel
Hum
%
Delta-T
°C
Wind Press
QNH
hPa
Press
MSL
hPa
Rain
since 9 am
mm
Dir
 
Spd
km/h
Gust
km/h
Spd
kts
Gust
kts
19/11:30pm 18.6 16.3 7.4 48 5.8 SE 9 9 5 5 1014.9 - 0.0
19/11:00pm 18.3 16.3 7.1 48 5.7 SE 7 9 4 5 1014.9 - 0.0
19/10:30pm 18.3 16.3 7.1 48 5.7 SE 7 9 4 5 1014.9 - 0.0
19/10:00pm 20.3 18.3 7.3 43 6.7 SE 7 9 4 5 1014.9 - 0.0
19/09:30pm 20.8 18.7 8.4 45 6.6 SSE 9 9 5 5 1015.0 - 0.0
19/09:00pm 21.3 18.9 7.2 40 7.3 SE 9 13 5 7 1014.9 1013.1 0.0
19/08:30pm 20.7 18.3 7.0 41 7.1 SE 9 11 5 6 1014.5 - 0.0
19/08:00pm 21.7 19.4 7.5 40 7.5 SE 9 13 5 7 1014.0 - 0.0
19/07:30pm 21.5 19.8 8.4 43 7.0 SSE 7 9 4 5 1013.7 - 0.0
19/07:00pm 23.7 21.6 6.5 33 9.0 SE 7 9 4 5 1013.4 - 0.0
19/06:30pm 26.7 24.1 6.2 27 10.8 SE 9 11 5 6 1013.1 - 0.0
19/06:00pm 29.2 26.6 6.0 23 12.4 ESE 9 13 5 7 1012.7 1010.9 0.0
19/05:30pm 30.5 26.9 5.0 20 13.5 ESE 13 20 7 11 1012.5 - 0.0
19/05:00pm 31.1 26.9 4.0 18 14.2 E 15 22 8 12 1012.2 - 0.0
19/04:30pm 31.6 27.4 3.6 17 14.6 SE 15 22 8 12 1012.2 - 0.0
19/04:00pm 31.9 27.5 4.6 18 14.5 ESE 17 22 9 12 1012.3 - 0.0
19/03:30pm 31.8 27.2 3.8 17 14.6 SE 17 24 9 13 1012.5 - 0.0
19/03:00pm 32.0 27.8 5.5 19 14.3 E 17 22 9 12 1012.8 1011.0 0.0
19/02:30pm 31.2 26.2 1.5 15 14.9 E 17 24 9 13 1013.3 - 0.0
19/02:00pm 31.4 25.9 4.2 18 14.3 ESE 22 33 12 18 1013.7 - 0.0
19/01:30pm 30.8 25.5 2.9 17 14.3 ESE 20 30 11 16 1014.2 - 0.0
19/01:00pm 31.1 26.3 5.5 20 13.7 ESE 20 30 11 16 1014.7 - 0.0
19/12:30pm 29.9 24.0 3.8 19 13.5 E 24 37 13 20 1015.3 - 0.0
19/12:00pm 29.3 23.2 2.5 18 13.5 E 24 35 13 19 1015.9 1014.1 0.0
19/11:30am 29.0 23.1 3.8 20 13.0 E 24 33 13 18 1016.6 - 0.0
19/11:00am 28.3 22.7 3.2 20 12.7 E 22 37 12 20 1017.1 - 0.0
19/10:30am 26.9 20.4 2.7 21 12.0 E 26 37 14 20 1017.3 - 0.0
19/10:00am 25.5 19.2 3.5 24 11.0 E 26 33 14 18 1017.4 - 0.0
19/09:30am 24.1 19.7 4.5 28 9.9 ESE 17 24 9 13 1017.4 - 0.0
19/09:00am 22.2 18.5 6.4 36 8.1 ESE 15 22 8 12 1017.3 1015.5 0.0
19/08:30am 20.0 18.1 9.0 49 5.9 SE 9 13 5 7 1017.2 - 0.0
19/08:00am 18.5 16.3 7.9 50 5.5 ESE 9 11 5 6 1017.1 - 0.0
19/07:30am 15.1 13.5 7.9 62 3.7 ESE 6 7 3 4 1016.8 - 0.0
19/07:00am 14.8 12.4 6.9 59 3.9 ESE 9 11 5 6 1016.4 - 0.0
19/06:30am 16.1 13.7 6.8 54 4.7 SE 9 11 5 6 1015.8 - 0.0
19/06:00am 17.8 14.9 6.3 47 5.8 SE 11 20 6 11 1015.4 1013.6 0.0
19/05:30am 18.2 15.3 6.4 46 5.9 SE 11 20 6 11 1015.1 - 0.0
19/05:00am 17.4 14.5 8.0 54 4.9 SSE 13 15 7 8 1015.0 - 0.0
19/04:30am 15.0 13.8 9.6 70 2.8 SSE 6 9 3 5 1015.0 - 0.0
19/04:00am 15.2 14.0 9.6 69 2.9 SSE 6 7 3 4 1015.1 - 0.0
19/03:30am 15.4 14.4 8.9 65 3.4 SSE 4 6 2 3 1015.2 - 0.0
19/03:00am 16.5 15.2 9.2 62 3.8 SSE 6 7 3 4 1015.4 1013.6 0.0
19/02:30am 17.3 16.1 10.2 63 3.8 S 7 7 4 4 1015.3 - 0.0
19/02:00am 17.1 16.0 10.0 63 3.8 S 6 7 3 4 1015.4 - 0.0
19/01:30am 16.9 15.8 9.8 63 3.8 SSE 6 7 3 4 1015.5 - 0.0
19/01:00am 18.5 17.2 10.1 58 4.5 SE 7 9 4 5 1015.8 - 0.0
19/12:30am 18.4 17.0 9.7 57 4.7 SE 7 11 4 6 1016.0 - 0.0
19/12:00am 18.9 17.8 9.9 56 4.9 SSE 6 9 3 5 1016.1 1014.3 0.0
 
Date/Time
CST
Temp
°C
App
Temp
°C
Dew
Point
Rel
Hum
%
Delta-T
°C
Wind Press
QNH
hPa
Press
MSL
hPa
Rain
since 9 am
mm
Dir
 
Spd
km/h
Gust
km/h
Spd
kts
Gust
kts
18/11:30pm 19.2 18.0 9.7 54 5.1 SSE 6 9 3 5 1016.3 - 0.0
18/11:00pm 20.3 18.8 9.2 49 6.0 SSE 7 9 4 5 1016.3 - 0.0
18/10:30pm 21.8 20.5 10.0 47 6.5 SSE 7 11 4 6 1016.4 - 0.0
18/10:00pm 21.0 19.6 9.6 48 6.2 SE 7 9 4 5 1016.4 - 0.0

Other Formats:

Comma delimited format used in spreadsheet applications
http://www.bom.gov.au/fwo/IDD60801/IDD60801.94231.axf

JavaScript Object Notation format (JSON) in row-major order
http://www.bom.gov.au/fwo/IDD60801/IDD60801.94231.json